createdAt,value
2023-04-07T00:01:23.817Z,150092.44
2023-04-07T00:03:49.912Z,150093.75
2023-04-07T00:06:15.978Z,150086.16
2023-04-07T00:08:41.845Z,150089.91
2023-04-07T00:11:08.344Z,150103.81
2023-04-07T00:13:34.265Z,150125.22
2023-04-07T00:16:00.426Z,150073.53
2023-04-07T00:18:26.542Z,150083.63
2023-04-07T00:20:52.454Z,150103.81
2023-04-07T00:23:19.194Z,150084.91
2023-04-07T00:25:47.704Z,150097.50
2023-04-07T00:28:13.705Z,150057.13
2023-04-07T00:30:41.233Z,150048.34
2023-04-07T00:33:09.737Z,150078.59
2023-04-07T00:35:35.937Z,150100.03
2023-04-07T00:38:02.794Z,150093.75
2023-04-07T00:40:28.803Z,150072.28
2023-04-07T00:42:54.735Z,150084.91
2023-04-07T00:45:20.856Z,150045.81
2023-04-07T00:47:46.951Z,150063.47
2023-04-07T00:50:12.952Z,150062.22
2023-04-07T00:52:39.660Z,150052.09
2023-04-07T00:55:08.672Z,150063.47
2023-04-07T00:57:34.677Z,150079.88
2023-04-07T01:00:06.023Z,150088.66
2023-04-07T01:02:41.717Z,150101.28
2023-04-07T01:05:16.871Z,150095.00
2023-04-07T01:08:15.918Z,150083.63
2023-04-07T01:10:55.120Z,150073.53
2023-04-07T01:13:24.332Z,150071.00
2023-04-07T01:16:03.674Z,150062.22
2023-04-07T01:18:33.876Z,150068.50
2023-04-07T01:21:10.622Z,150054.63
2023-04-07T01:24:00.928Z,150044.56
2023-04-07T01:26:31.576Z,150068.50
2023-04-07T01:28:57.370Z,150034.47
2023-04-07T01:31:26.082Z,150033.19
2023-04-07T01:33:54.424Z,150038.22
2023-04-07T01:36:21.579Z,150036.97
2023-04-07T01:38:50.497Z,150047.06
2023-04-07T01:41:18.352Z,150034.47
2023-04-07T01:43:46.919Z,150058.44
2023-04-07T01:46:14.257Z,150064.72
2023-04-07T01:48:41.768Z,150068.50
2023-04-07T01:51:10.953Z,150053.38
2023-04-07T01:53:37.968Z,150067.25
2023-04-07T01:56:05.022Z,150088.66
2023-04-07T01:58:30.978Z,150082.38
2023-04-07T02:00:57.024Z,150096.25
2023-04-07T02:03:50.667Z,150101.28
2023-04-07T02:06:21.845Z,150069.75
2023-04-07T02:08:52.209Z,150082.38
2023-04-07T02:11:21.139Z,150095.00
2023-04-07T02:13:47.614Z,150084.91
2023-04-07T02:16:15.029Z,150096.25
2023-04-07T02:18:43.338Z,150123.97
2023-04-07T02:21:11.038Z,150101.28
2023-04-07T02:23:37.368Z,150116.41
2023-04-07T02:26:03.356Z,150110.09
2023-04-07T02:28:29.896Z,150100.03
2023-04-07T02:30:55.799Z,150095.00
2023-04-07T02:33:21.803Z,150103.81
2023-04-07T02:35:47.662Z,150123.97
2023-04-07T02:38:13.694Z,150097.50
2023-04-07T02:40:39.766Z,150103.81
2023-04-07T02:43:05.721Z,150103.81
2023-04-07T02:45:31.645Z,150115.16
2023-04-07T02:47:57.715Z,150108.84
2023-04-07T02:50:25.374Z,150108.84
2023-04-07T02:52:51.341Z,150103.81
2023-04-07T02:55:17.974Z,150086.16
2023-04-07T02:57:43.992Z,150093.75
2023-04-07T03:00:10.563Z,150074.78
2023-04-07T03:02:36.589Z,150074.78
2023-04-07T03:05:05.462Z,150082.38
2023-04-07T03:07:31.376Z,150077.34
2023-04-07T03:10:00.459Z,150093.75
2023-04-07T03:12:26.450Z,150084.91
2023-04-07T03:14:52.375Z,150078.59
2023-04-07T03:17:18.317Z,150086.16
2023-04-07T03:19:44.299Z,150093.75
2023-04-07T03:22:10.338Z,150088.66
2023-04-07T03:24:37.217Z,150096.25
2023-04-07T03:27:03.181Z,150108.84
2023-04-07T03:29:29.044Z,150126.47
2023-04-07T03:31:54.946Z,150126.47
2023-04-07T03:34:20.946Z,150120.19
2023-04-07T03:36:46.878Z,150096.25
2023-04-07T03:39:12.824Z,150107.56
2023-04-07T03:41:38.783Z,150120.19
2023-04-07T03:44:04.828Z,150142.88
2023-04-07T03:46:30.924Z,150112.66
2023-04-07T03:48:59.811Z,150088.66
2023-04-07T03:51:27.156Z,150089.91
2023-04-07T03:53:53.525Z,150095.00
2023-04-07T03:56:20.437Z,150100.03
2023-04-07T03:58:46.489Z,150091.19
2023-04-07T04:01:12.696Z,150068.50
2023-04-07T04:03:38.867Z,150088.66
2023-04-07T04:06:05.151Z,150098.78
2023-04-07T04:08:31.094Z,150086.16
2023-04-07T04:10:57.269Z,150093.75
2023-04-07T04:13:23.262Z,150117.69
2023-04-07T04:15:49.275Z,150134.06
2023-04-07T04:18:15.527Z,150151.72
2023-04-07T04:20:42.492Z,150146.66
2023-04-07T04:23:08.414Z,150105.06
2023-04-07T04:25:34.494Z,150125.22
2023-04-07T04:28:00.466Z,150150.47
2023-04-07T04:30:26.445Z,150131.56
2023-04-07T04:32:52.991Z,150139.09
2023-04-07T04:35:18.980Z,150160.53
2023-04-07T04:37:45.057Z,150180.72
2023-04-07T04:40:11.445Z,150188.31
2023-04-07T04:42:37.344Z,150205.97
2023-04-07T04:45:03.713Z,150219.84
2023-04-07T04:47:30.025Z,150184.53
2023-04-07T04:49:55.949Z,150181.97
2023-04-07T04:52:21.870Z,150198.38
2023-04-07T04:54:47.864Z,150207.22
2023-04-07T04:57:13.780Z,150211.00
2023-04-07T04:59:39.894Z,150224.88
2023-04-07T05:02:05.841Z,150211.00
2023-04-07T05:04:32.091Z,150233.69
2023-04-07T05:06:58.274Z,150234.94
2023-04-07T05:09:24.250Z,150233.69
2023-04-07T05:11:50.225Z,150238.75
2023-04-07T05:14:16.089Z,150216.03
2023-04-07T05:16:42.166Z,150193.34
2023-04-07T05:19:08.267Z,150180.72
2023-04-07T05:21:34.140Z,150181.97
2023-04-07T05:24:00.062Z,150200.88
2023-04-07T05:26:27.284Z,150223.63
2023-04-07T05:28:53.282Z,150233.69
2023-04-07T05:31:19.219Z,150219.84
2023-04-07T05:33:45.243Z,150209.72
2023-04-07T05:36:11.159Z,150213.50
2023-04-07T05:38:37.169Z,150227.41
2023-04-07T05:41:03.164Z,150192.06
2023-04-07T05:43:29.121Z,150229.91
2023-04-07T05:45:55.264Z,150214.75
2023-04-07T05:48:21.204Z,150219.84
2023-04-07T05:50:47.200Z,150227.41
2023-04-07T05:53:13.431Z,150228.66
2023-04-07T05:55:42.068Z,150202.19
2023-04-07T05:58:08.082Z,150184.53
2023-04-07T06:00:34.057Z,150229.91
2023-04-07T06:03:01.327Z,150246.31
2023-04-07T06:05:27.431Z,150238.75
2023-04-07T06:07:53.873Z,150232.41
2023-04-07T06:10:20.076Z,150197.09
2023-04-07T06:12:45.996Z,150252.59
2023-04-07T06:15:11.965Z,150223.63
2023-04-07T06:17:37.971Z,150234.94
2023-04-07T06:20:04.448Z,150242.53
2023-04-07T06:22:30.796Z,150231.16
2023-04-07T06:24:58.283Z,150253.84
2023-04-07T06:27:24.158Z,150222.34
2023-04-07T06:29:50.293Z,150223.63
2023-04-07T06:32:16.484Z,150255.16
2023-04-07T06:34:42.395Z,150247.56
2023-04-07T06:37:08.452Z,150231.16
2023-04-07T06:39:34.499Z,150246.31
2023-04-07T06:42:01.066Z,150250.09
2023-04-07T06:44:27.183Z,150276.59
2023-04-07T06:46:54.864Z,150293.06
2023-04-07T06:49:21.053Z,150306.88
2023-04-07T06:51:47.104Z,150293.06
2023-04-07T06:54:14.182Z,150308.16
2023-04-07T06:56:41.695Z,150293.06
2023-04-07T06:59:07.969Z,150290.47
2023-04-07T07:01:34.182Z,150308.16
2023-04-07T07:04:00.735Z,150337.19
2023-04-07T07:06:27.119Z,150296.81
2023-04-07T07:08:53.593Z,150311.97
2023-04-07T07:11:20.268Z,150324.56
2023-04-07T07:13:47.395Z,150335.94
2023-04-07T07:16:13.749Z,150343.47
2023-04-07T07:18:39.815Z,150337.19
2023-04-07T07:21:05.782Z,150366.22
2023-04-07T07:23:31.839Z,150363.72
2023-04-07T07:25:57.977Z,150361.16
2023-04-07T07:28:24.111Z,150371.25
2023-04-07T07:30:50.259Z,150406.59
2023-04-07T07:33:16.297Z,150409.13
2023-04-07T07:35:42.326Z,150415.41
2023-04-07T07:38:08.354Z,150406.59
2023-04-07T07:40:34.340Z,150421.75
2023-04-07T07:43:00.544Z,150417.97
2023-04-07T07:45:27.047Z,150414.16
2023-04-07T07:47:53.089Z,150419.22
2023-04-07T07:50:19.128Z,150409.13
2023-04-07T07:52:45.583Z,150412.88
2023-04-07T07:55:11.577Z,150420.50
2023-04-07T07:57:37.505Z,150407.84
2023-04-07T08:00:03.961Z,150425.53
2023-04-07T08:02:33.258Z,150435.63
2023-04-07T08:04:59.762Z,150448.22
2023-04-07T08:07:26.665Z,150421.75
2023-04-07T08:09:52.889Z,150420.50
2023-04-07T08:12:18.978Z,150454.56
2023-04-07T08:14:45.126Z,150472.25
2023-04-07T08:17:11.915Z,150486.09
2023-04-07T08:19:37.866Z,150506.34
2023-04-07T08:22:03.788Z,150492.44
2023-04-07T08:24:29.764Z,150487.34
2023-04-07T08:26:55.923Z,150511.38
2023-04-07T08:29:21.964Z,150488.66
2023-04-07T08:31:48.008Z,150477.28
2023-04-07T08:34:14.364Z,150492.44
2023-04-07T08:36:41.887Z,150477.28
2023-04-07T08:39:08.913Z,150489.91
2023-04-07T08:41:40.888Z,150478.53
2023-04-07T08:44:08.787Z,150460.88
2023-04-07T08:46:37.263Z,150446.97
2023-04-07T08:49:07.524Z,150470.97
2023-04-07T08:51:34.473Z,150478.53
2023-04-07T08:54:11.326Z,150474.75
2023-04-07T08:56:40.223Z,150476.03
2023-04-07T08:59:08.410Z,150472.25
2023-04-07T09:01:36.139Z,150454.56
2023-04-07T09:04:03.725Z,150483.56
2023-04-07T09:06:31.454Z,150494.94
2023-04-07T09:08:58.191Z,150481.06
2023-04-07T09:11:26.868Z,150505.03
2023-04-07T09:13:53.846Z,150479.78
2023-04-07T09:16:20.129Z,150486.09
2023-04-07T09:18:46.491Z,150494.94
2023-04-07T09:21:13.440Z,150523.97
2023-04-07T09:23:42.488Z,150522.69
2023-04-07T09:26:27.661Z,150505.03
2023-04-07T09:28:55.070Z,150506.34
2023-04-07T09:31:44.028Z,150506.34
2023-04-07T09:34:24.808Z,150487.34
2023-04-07T09:36:50.714Z,150507.59
2023-04-07T09:39:16.770Z,150513.88
2023-04-07T09:41:43.228Z,150518.91
2023-04-07T09:44:10.063Z,150510.09
2023-04-07T09:46:47.481Z,150534.06
2023-04-07T09:49:13.790Z,150515.16
2023-04-07T09:51:55.842Z,150532.81
2023-04-07T09:54:41.151Z,150522.69
2023-04-07T09:57:09.282Z,150525.25
2023-04-07T09:59:37.330Z,150497.47
2023-04-07T10:02:04.440Z,150516.41
2023-04-07T10:04:30.912Z,150525.25
2023-04-07T10:06:58.442Z,150530.31
2023-04-07T10:09:26.933Z,150515.16
2023-04-07T10:11:56.212Z,150515.16
2023-04-07T10:14:31.053Z,150521.44
2023-04-07T10:16:59.758Z,150537.84
2023-04-07T10:19:29.199Z,150546.72
2023-04-07T10:21:56.482Z,150549.25
2023-04-07T10:24:50.502Z,150536.59
2023-04-07T10:27:20.714Z,150555.53
2023-04-07T10:29:50.915Z,150550.50
2023-04-07T10:32:17.028Z,150559.31
2023-04-07T10:34:55.169Z,150555.53
2023-04-07T10:37:23.109Z,150593.41
2023-04-07T10:39:52.829Z,150580.81
2023-04-07T10:42:37.351Z,150594.66
2023-04-07T10:45:04.456Z,150631.28
2023-04-07T10:47:30.804Z,150604.78
2023-04-07T10:50:19.655Z,150604.78
2023-04-07T10:52:47.645Z,150623.72
2023-04-07T10:55:38.205Z,150636.38
2023-04-07T10:58:14.187Z,150632.59
2023-04-07T11:00:40.373Z,150609.81
2023-04-07T11:03:13.728Z,150637.63
2023-04-07T11:05:41.178Z,150642.66
2023-04-07T11:08:08.067Z,150662.88
2023-04-07T11:10:38.090Z,150681.81
2023-04-07T11:13:08.013Z,150690.69
2023-04-07T11:15:38.498Z,150674.25
2023-04-07T11:18:17.579Z,150646.44
2023-04-07T11:20:54.711Z,150637.63
2023-04-07T11:23:26.486Z,150641.41
2023-04-07T11:26:02.519Z,150678.03
2023-04-07T11:28:29.699Z,150674.25
2023-04-07T11:30:57.657Z,150670.47
2023-04-07T11:33:26.656Z,150641.41
2023-04-07T11:35:55.751Z,150659.09
2023-04-07T11:38:26.770Z,150704.59
2023-04-07T11:40:54.761Z,150655.31
2023-04-07T11:43:27.555Z,150665.38
2023-04-07T11:46:14.925Z,150742.47
2023-04-07T11:48:43.768Z,150752.56
2023-04-07T11:51:18.545Z,150742.47
2023-04-07T11:53:45.639Z,150750.03
2023-04-07T11:56:17.993Z,150742.47
2023-04-07T11:58:51.867Z,150710.88
2023-04-07T12:01:18.571Z,150743.75
2023-04-07T12:03:58.785Z,150784.16
2023-04-07T12:06:37.932Z,150811.97
2023-04-07T12:09:08.545Z,150830.94
2023-04-07T12:11:35.848Z,150784.16
2023-04-07T12:14:06.484Z,150832.19
2023-04-07T12:16:37.991Z,150880.19
2023-04-07T12:19:04.222Z,150900.44
2023-04-07T12:21:31.015Z,150876.41
2023-04-07T12:23:56.973Z,150862.47
2023-04-07T12:26:24.821Z,150849.88
2023-04-07T12:28:50.832Z,150848.63
2023-04-07T12:31:17.005Z,150813.22
2023-04-07T12:33:42.978Z,150791.72
2023-04-07T12:36:09.205Z,150785.41
2023-04-07T12:38:35.270Z,150734.88
2023-04-07T12:41:02.816Z,150733.59
2023-04-07T12:43:32.476Z,150748.78
2023-04-07T12:45:58.511Z,150737.38
2023-04-07T12:48:26.789Z,150689.41
2023-04-07T12:50:52.928Z,150699.50
2023-04-07T12:53:18.965Z,150673.00
2023-04-07T12:55:47.303Z,150657.84
2023-04-07T12:58:14.948Z,150641.41
2023-04-07T13:00:41.183Z,150640.16
2023-04-07T13:03:07.573Z,150665.38
2023-04-07T13:05:35.020Z,150690.69
2023-04-07T13:08:01.008Z,150707.09
2023-04-07T13:10:27.070Z,150708.38
2023-04-07T13:12:53.087Z,150720.97
2023-04-07T13:15:19.231Z,150732.34
2023-04-07T13:17:46.733Z,150736.13
2023-04-07T13:20:19.815Z,150733.59
2023-04-07T13:22:50.773Z,150745.00
2023-04-07T13:25:26.770Z,150785.41
2023-04-07T13:27:52.741Z,150798.06
2023-04-07T13:30:20.838Z,150789.19
2023-04-07T13:32:48.673Z,150815.75
2023-04-07T13:35:16.995Z,150780.38
2023-04-07T13:37:43.841Z,150786.69
2023-04-07T13:40:13.271Z,150791.72
2023-04-07T13:42:39.736Z,150814.50
2023-04-07T13:45:08.475Z,150789.19
2023-04-07T13:47:35.395Z,150787.94
2023-04-07T13:50:02.353Z,150817.00
2023-04-07T13:52:34.435Z,150755.06
2023-04-07T13:55:01.743Z,150767.72
2023-04-07T13:57:30.687Z,150767.72
2023-04-07T14:00:08.972Z,150707.09
2023-04-07T14:02:35.296Z,150729.81
2023-04-07T14:05:03.483Z,150750.03
2023-04-07T14:07:29.868Z,150747.50
2023-04-07T14:09:55.932Z,150743.75
2023-04-07T14:12:25.844Z,150718.44
2023-04-07T14:14:52.155Z,150714.66
2023-04-07T14:17:18.218Z,150729.81
2023-04-07T14:19:45.883Z,150750.03
2023-04-07T14:22:13.705Z,150789.19
2023-04-07T14:24:39.893Z,150734.88
2023-04-07T14:27:06.048Z,150737.38
2023-04-07T14:29:32.166Z,150775.28
2023-04-07T14:31:58.209Z,150762.69
2023-04-07T14:34:24.328Z,150709.63
2023-04-07T14:36:54.808Z,150742.47
2023-04-07T14:39:22.229Z,150731.09
2023-04-07T14:41:48.436Z,150707.09
2023-04-07T14:44:14.828Z,150695.72
2023-04-07T14:46:42.182Z,150694.47
2023-04-07T14:49:08.778Z,150683.06
2023-04-07T14:51:34.930Z,150679.28
2023-04-07T14:54:01.782Z,150671.75
2023-04-07T14:56:27.760Z,150689.41
2023-04-07T14:58:53.796Z,150703.28
2023-04-07T15:01:19.809Z,150717.19
2023-04-07T15:03:46.782Z,150715.94
2023-04-07T15:06:13.316Z,150709.63
2023-04-07T15:08:40.360Z,150705.84
2023-04-07T15:11:09.447Z,150738.66
2023-04-07T15:13:35.859Z,150717.19
2023-04-07T15:16:12.543Z,150763.94
2023-04-07T15:18:41.339Z,150763.94
2023-04-07T15:21:09.035Z,150815.75
2023-04-07T15:23:37.266Z,150828.34
2023-04-07T15:26:05.014Z,150851.13
2023-04-07T15:28:31.191Z,150859.97
2023-04-07T15:30:57.838Z,150844.78
2023-04-07T15:33:23.839Z,150820.78
2023-04-07T15:35:50.129Z,150814.50
2023-04-07T15:38:16.272Z,150805.63
2023-04-07T15:40:42.314Z,150776.59
2023-04-07T15:43:10.677Z,150739.97
2023-04-07T15:45:41.357Z,150698.25
2023-04-07T15:48:07.968Z,150684.34
2023-04-07T15:50:35.482Z,150688.16
2023-04-07T15:53:04.098Z,150684.34
2023-04-07T15:55:34.240Z,150684.34
2023-04-07T15:58:01.325Z,150693.19
2023-04-07T16:00:29.735Z,150664.13
2023-04-07T16:02:55.952Z,150680.56
2023-04-07T16:05:22.151Z,150679.28
2023-04-07T16:07:48.530Z,150657.84
2023-04-07T16:10:14.726Z,150664.13
2023-04-07T16:12:40.849Z,150666.66
2023-04-07T16:15:09.203Z,150648.97
2023-04-07T16:17:36.062Z,150664.13
2023-04-07T16:20:03.442Z,150670.47
2023-04-07T16:22:29.651Z,150685.59
2023-04-07T16:24:55.686Z,150669.22
2023-04-07T16:27:21.682Z,150662.88
2023-04-07T16:29:47.934Z,150655.31
2023-04-07T16:32:14.337Z,150662.88
2023-04-07T16:34:40.375Z,150633.84
2023-04-07T16:37:06.422Z,150622.47
2023-04-07T16:39:32.340Z,150650.28
2023-04-07T16:41:58.317Z,150626.25
2023-04-07T16:44:24.379Z,150648.97
2023-04-07T16:46:50.482Z,150631.28
2023-04-07T16:49:16.764Z,150652.78
2023-04-07T16:51:42.849Z,150647.72
2023-04-07T16:54:08.812Z,150652.78
2023-04-07T16:56:34.830Z,150674.25
2023-04-07T16:59:02.695Z,150686.91
2023-04-07T17:01:30.256Z,150688.16
2023-04-07T17:03:56.448Z,150694.47
2023-04-07T17:06:22.554Z,150695.72
2023-04-07T17:08:48.510Z,150700.75
2023-04-07T17:11:14.847Z,150679.28
2023-04-07T17:13:41.145Z,150686.91
2023-04-07T17:16:13.344Z,150664.13
2023-04-07T17:18:39.608Z,150678.03
2023-04-07T17:21:05.807Z,150690.69
2023-04-07T17:23:32.870Z,150667.97
2023-04-07T17:25:58.795Z,150673.00
2023-04-07T17:28:26.695Z,150686.91
2023-04-07T17:30:52.863Z,150666.66
2023-04-07T17:33:18.822Z,150674.25
2023-04-07T17:35:47.050Z,150670.47
2023-04-07T17:38:13.058Z,150657.84
2023-04-07T17:40:39.011Z,150638.91
2023-04-07T17:43:05.203Z,150643.94
2023-04-07T17:45:31.334Z,150642.66
2023-04-07T17:47:57.711Z,150640.16
2023-04-07T17:50:23.779Z,150633.84
2023-04-07T17:52:50.852Z,150631.28
2023-04-07T17:55:17.263Z,150607.31
2023-04-07T17:57:43.968Z,150609.81
2023-04-07T18:00:10.363Z,150590.88
2023-04-07T18:02:39.523Z,150594.66
2023-04-07T18:05:06.349Z,150598.50
2023-04-07T18:07:32.582Z,150602.28
2023-04-07T18:09:58.506Z,150602.28
2023-04-07T18:12:24.738Z,150607.31
2023-04-07T18:14:52.604Z,150582.06
2023-04-07T18:17:18.566Z,150563.13
2023-04-07T18:19:44.951Z,150580.81
2023-04-07T18:22:11.096Z,150577.00
2023-04-07T18:24:37.519Z,150570.69
2023-04-07T18:27:04.478Z,150570.69
2023-04-07T18:29:30.530Z,150573.22
2023-04-07T18:31:56.517Z,150564.41
2023-04-07T18:34:25.262Z,150561.88
2023-04-07T18:36:51.481Z,150551.75
2023-04-07T18:39:18.494Z,150542.94
2023-04-07T18:41:46.701Z,150546.72
2023-04-07T18:44:13.252Z,150547.97
2023-04-07T18:46:39.566Z,150544.19
2023-04-07T18:49:05.737Z,150535.34
2023-04-07T18:51:32.156Z,150529.03
2023-04-07T18:53:58.387Z,150500.00
2023-04-07T18:56:27.667Z,150497.47
2023-04-07T18:58:53.900Z,150488.66
2023-04-07T19:01:20.149Z,150488.66
2023-04-07T19:03:46.853Z,150503.75
2023-04-07T19:06:14.994Z,150498.72
2023-04-07T19:08:41.154Z,150505.03
2023-04-07T19:11:07.214Z,150494.94
2023-04-07T19:13:33.211Z,150494.94
2023-04-07T19:15:59.622Z,150508.84
2023-04-07T19:18:27.611Z,150492.44
2023-04-07T19:20:53.600Z,150502.50
2023-04-07T19:23:19.896Z,150503.75
2023-04-07T19:25:46.144Z,150500.00
2023-04-07T19:28:13.345Z,150484.84
2023-04-07T19:30:39.487Z,150474.75
2023-04-07T19:33:05.861Z,150464.63
2023-04-07T19:35:33.571Z,150476.03
2023-04-07T19:38:00.045Z,150487.34
2023-04-07T19:40:26.032Z,150474.75
2023-04-07T19:42:53.980Z,150474.75
2023-04-07T19:45:20.402Z,150452.00
2023-04-07T19:47:47.021Z,150460.88
2023-04-07T19:50:15.845Z,150476.03
2023-04-07T19:52:45.257Z,150467.16
2023-04-07T19:55:12.459Z,150457.09
2023-04-07T19:57:42.551Z,150458.34
2023-04-07T20:00:09.319Z,150469.69
2023-04-07T20:02:38.218Z,150484.84
2023-04-07T20:05:05.081Z,150481.06
2023-04-07T20:07:31.423Z,150455.84
2023-04-07T20:09:57.632Z,150468.41
2023-04-07T20:12:24.116Z,150473.50
2023-04-07T20:14:51.076Z,150470.97
2023-04-07T20:17:17.168Z,150463.38
2023-04-07T20:19:43.236Z,150459.59
2023-04-07T20:22:09.272Z,150464.63
2023-04-07T20:24:35.507Z,150467.16
2023-04-07T20:27:01.720Z,150463.38
2023-04-07T20:29:27.669Z,150450.75
2023-04-07T20:31:53.790Z,150452.00
2023-04-07T20:34:20.730Z,150446.97
2023-04-07T20:36:48.224Z,150454.56
2023-04-07T20:39:15.196Z,150455.84
2023-04-07T20:41:42.267Z,150455.84
2023-04-07T20:44:08.834Z,150464.63
2023-04-07T20:46:34.957Z,150463.38
2023-04-07T20:49:01.019Z,150459.59
2023-04-07T20:51:28.458Z,150450.75
2023-04-07T20:53:54.544Z,150477.28
2023-04-07T20:56:21.112Z,150465.91
2023-04-07T20:58:47.769Z,150462.13
2023-04-07T21:01:13.833Z,150454.56
2023-04-07T21:03:40.044Z,150452.00
2023-04-07T21:06:06.427Z,150455.84
2023-04-07T21:08:32.276Z,150428.03
2023-04-07T21:10:58.288Z,150440.69
2023-04-07T21:13:26.424Z,150438.16
2023-04-07T21:15:52.424Z,150453.31
2023-04-07T21:18:19.387Z,150448.22
2023-04-07T21:20:46.036Z,150453.31
2023-04-07T21:23:12.006Z,150459.59
2023-04-07T21:25:38.073Z,150467.16
2023-04-07T21:28:05.017Z,150463.38
2023-04-07T21:30:31.958Z,150440.69
2023-04-07T21:32:58.259Z,150434.38
2023-04-07T21:35:30.208Z,150443.19
2023-04-07T21:37:56.211Z,150436.91
2023-04-07T21:40:22.258Z,150440.69
2023-04-07T21:42:48.400Z,150435.63
2023-04-07T21:45:14.676Z,150430.56
2023-04-07T21:47:41.155Z,150423.00
2023-04-07T21:50:07.879Z,150439.41
2023-04-07T21:52:33.865Z,150415.41
2023-04-07T21:54:59.928Z,150411.63
2023-04-07T21:57:25.891Z,150429.31
2023-04-07T21:59:51.908Z,150423.00
2023-04-07T22:02:17.905Z,150420.50
2023-04-07T22:04:44.202Z,150409.13
2023-04-07T22:07:11.044Z,150426.78
2023-04-07T22:09:37.333Z,150421.75
2023-04-07T22:12:03.334Z,150409.13
2023-04-07T22:14:29.398Z,150409.13
2023-04-07T22:16:55.393Z,150426.78
2023-04-07T22:19:21.540Z,150400.31
2023-04-07T22:21:48.813Z,150414.16
2023-04-07T22:24:15.191Z,150391.44
2023-04-07T22:26:41.171Z,150391.44
2023-04-07T22:29:08.799Z,150402.81
2023-04-07T22:31:35.316Z,150397.72
2023-04-07T22:34:01.481Z,150401.56
2023-04-07T22:36:27.656Z,150407.84
2023-04-07T22:38:53.760Z,150386.41
2023-04-07T22:41:20.820Z,150370.00
2023-04-07T22:43:46.723Z,150367.50
2023-04-07T22:46:12.643Z,150352.34
2023-04-07T22:48:38.599Z,150357.38
2023-04-07T22:51:04.587Z,150354.84
2023-04-07T22:53:30.560Z,150348.56
2023-04-07T22:55:56.530Z,150344.78
2023-04-07T22:58:22.480Z,150333.41
2023-04-07T23:00:48.450Z,150343.47
2023-04-07T23:03:14.518Z,150348.56
2023-04-07T23:05:40.749Z,150325.81
2023-04-07T23:08:06.947Z,150328.38
2023-04-07T23:10:33.718Z,150354.84
2023-04-07T23:12:59.913Z,150352.34
2023-04-07T23:15:26.682Z,150358.63
2023-04-07T23:17:52.752Z,150359.88
2023-04-07T23:20:18.766Z,150344.78
2023-04-07T23:22:44.820Z,150329.63
2023-04-07T23:25:10.808Z,150344.78
2023-04-07T23:27:36.768Z,150344.78
2023-04-07T23:30:03.749Z,150337.19
2023-04-07T23:32:29.703Z,150342.22
2023-04-07T23:34:55.645Z,150340.97
2023-04-07T23:37:21.609Z,150346.03
2023-04-07T23:39:47.536Z,150334.66
2023-04-07T23:42:14.241Z,150344.78
2023-04-07T23:44:40.519Z,150354.84
2023-04-07T23:47:06.476Z,150344.78
2023-04-07T23:49:32.431Z,150348.56
2023-04-07T23:51:58.297Z,150364.97
2023-04-07T23:54:24.318Z,150311.97
2023-04-07T23:56:50.342Z,150271.50
2023-04-07T23:59:16.351Z,150308.16
